createdAt,value
2023-03-31T08:05:42.189Z,14.33
2023-03-31T08:08:08.965Z,14.87
2023-03-31T08:10:35.555Z,15.00
2023-03-31T08:13:02.951Z,14.67
2023-03-31T08:15:29.735Z,14.37
2023-03-31T08:17:59.220Z,13.53
2023-03-31T08:20:25.953Z,14.70
2023-03-31T08:22:52.856Z,14.30
2023-03-31T08:25:20.665Z,13.33
2023-03-31T08:27:50.968Z,13.70
2023-03-31T08:30:18.976Z,13.87
2023-03-31T08:32:46.441Z,12.83
2023-03-31T08:35:13.262Z,13.53
2023-03-31T08:37:40.068Z,13.63
2023-03-31T08:40:09.593Z,13.37
2023-03-31T08:42:44.284Z,13.00
2023-03-31T08:45:22.183Z,12.60
2023-03-31T08:47:52.113Z,13.17
2023-03-31T08:50:26.304Z,11.33
2023-03-31T08:53:31.799Z,11.77
2023-03-31T08:55:59.225Z,12.30
2023-03-31T08:58:34.026Z,11.23
2023-03-31T09:01:14.096Z,10.50
2023-03-31T09:04:04.917Z,11.30
2023-03-31T09:06:38.208Z,10.50
2023-03-31T09:09:09.291Z,10.23
2023-03-31T09:11:39.731Z,10.80
2023-03-31T09:14:45.815Z,9.77
2023-03-31T09:17:27.148Z,9.40
2023-03-31T09:20:10.308Z,8.87
2023-03-31T09:22:42.279Z,8.87
2023-03-31T09:25:16.170Z,9.90
2023-03-31T09:27:43.848Z,9.00
2023-03-31T09:30:23.447Z,9.00
2023-03-31T09:32:53.205Z,7.67
2023-03-31T09:35:25.942Z,7.63
2023-03-31T09:37:53.816Z,7.53
2023-03-31T09:40:26.014Z,7.20
2023-03-31T09:43:06.509Z,7.10
2023-03-31T09:45:34.239Z,7.30
2023-03-31T09:48:07.201Z,6.63
2023-03-31T09:51:01.640Z,6.80
2023-03-31T09:53:53.444Z,6.27
2023-03-31T09:56:49.271Z,6.63
2023-03-31T09:59:32.996Z,7.13
2023-03-31T10:02:03.521Z,6.43
2023-03-31T10:04:32.910Z,6.90
2023-03-31T10:07:00.630Z,5.90
2023-03-31T10:09:30.283Z,5.47
2023-03-31T10:12:00.200Z,4.83
2023-03-31T10:14:33.772Z,5.10
2023-03-31T10:17:06.234Z,4.80
2023-03-31T10:19:38.085Z,4.33
2023-03-31T10:22:17.054Z,4.97
2023-03-31T10:24:45.705Z,4.70
2023-03-31T10:27:21.295Z,4.83
2023-03-31T10:29:48.290Z,5.90
2023-03-31T10:32:25.574Z,4.47
2023-03-31T10:34:52.200Z,4.53
2023-03-31T10:37:22.501Z,4.70
2023-03-31T10:39:57.623Z,4.53
2023-03-31T10:42:25.009Z,4.60
2023-03-31T10:45:37.465Z,4.40
2023-03-31T10:48:06.750Z,4.80
2023-03-31T10:50:36.220Z,4.83
2023-03-31T10:53:05.625Z,4.77
2023-03-31T10:55:36.949Z,5.43
2023-03-31T10:58:11.455Z,4.27
2023-03-31T11:00:51.347Z,3.90
2023-03-31T11:03:46.284Z,4.53
2023-03-31T11:06:31.865Z,4.30
2023-03-31T11:08:58.311Z,5.13
2023-03-31T11:11:53.207Z,4.30
2023-03-31T11:14:41.654Z,4.50
2023-03-31T11:17:20.113Z,5.10
2023-03-31T11:20:19.781Z,5.30
2023-03-31T11:23:00.661Z,4.50
2023-03-31T11:25:57.828Z,4.50
2023-03-31T11:28:24.565Z,4.20
2023-03-31T11:30:57.960Z,4.53
2023-03-31T11:33:45.829Z,4.60
2023-03-31T11:36:15.762Z,4.40
2023-03-31T11:38:57.424Z,4.87
2023-03-31T11:41:33.781Z,5.00
2023-03-31T11:44:06.578Z,4.63
2023-03-31T11:47:04.427Z,4.40
2023-03-31T11:49:38.320Z,4.07
2023-03-31T11:52:17.466Z,4.80
2023-03-31T11:54:53.288Z,4.70
2023-03-31T11:57:36.075Z,4.63
2023-03-31T12:00:07.319Z,3.97
2023-03-31T12:02:46.259Z,4.57
2023-03-31T12:05:13.417Z,4.40
2023-03-31T12:07:43.931Z,4.27
2023-03-31T12:10:30.392Z,3.97
2023-03-31T12:13:40.505Z,4.20
2023-03-31T12:16:22.782Z,3.90
2023-03-31T12:19:11.205Z,3.33
2023-03-31T12:21:39.413Z,3.97
2023-03-31T12:24:07.901Z,3.40
2023-03-31T12:26:52.989Z,3.80
2023-03-31T12:29:51.309Z,4.00
2023-03-31T12:32:27.971Z,2.80
2023-03-31T12:35:18.121Z,3.23
2023-03-31T12:38:05.870Z,3.10
2023-03-31T12:40:32.365Z,3.20
2023-03-31T12:43:06.629Z,3.13
2023-03-31T12:45:46.716Z,3.60
2023-03-31T12:48:29.098Z,3.73
2023-03-31T12:51:10.150Z,3.60
2023-03-31T12:53:48.841Z,4.10
2023-03-31T12:56:15.604Z,4.07
2023-03-31T12:58:43.854Z,3.27
2023-03-31T13:01:24.090Z,3.37
2023-03-31T13:04:22.814Z,3.70
2023-03-31T13:06:54.785Z,3.23
2023-03-31T13:09:33.613Z,3.80
2023-03-31T13:12:07.864Z,3.03
2023-03-31T13:14:38.762Z,3.50
2023-03-31T13:17:24.881Z,3.00
2023-03-31T13:19:52.474Z,3.20
2023-03-31T13:22:31.688Z,3.10
2023-03-31T13:25:33.437Z,3.10
2023-03-31T13:28:14.812Z,3.53
2023-03-31T13:30:41.538Z,2.90
2023-03-31T13:33:22.390Z,2.80
2023-03-31T13:35:54.362Z,4.10
2023-03-31T13:39:10.459Z,3.23
2023-03-31T13:41:56.409Z,3.37
2023-03-31T13:44:46.434Z,3.17
2023-03-31T13:47:31.723Z,3.07
2023-03-31T13:50:23.410Z,3.47
2023-03-31T13:53:31.850Z,3.23
2023-03-31T13:56:08.240Z,2.93
2023-03-31T13:58:44.720Z,2.93
2023-03-31T14:01:16.330Z,3.63
2023-03-31T14:04:05.355Z,2.83
2023-03-31T14:06:50.653Z,2.73
2023-03-31T14:09:25.967Z,2.63
2023-03-31T14:11:52.590Z,2.67
2023-03-31T14:14:19.441Z,2.47
2023-03-31T14:17:00.350Z,2.43
2023-03-31T14:19:32.960Z,2.30
2023-03-31T14:22:31.513Z,2.50
2023-03-31T14:25:31.105Z,3.00
2023-03-31T14:28:41.565Z,2.67
2023-03-31T14:31:27.240Z,3.07
2023-03-31T14:34:19.454Z,2.77
2023-03-31T14:36:57.918Z,2.80
2023-03-31T14:39:28.196Z,3.00
2023-03-31T14:41:58.287Z,2.60
2023-03-31T14:44:25.560Z,3.00
2023-03-31T14:46:52.230Z,2.87
2023-03-31T14:49:24.002Z,2.77
2023-03-31T14:51:53.403Z,2.40
2023-03-31T14:54:21.325Z,2.80
2023-03-31T14:56:54.231Z,3.23
2023-03-31T14:59:27.498Z,2.90
2023-03-31T15:01:54.641Z,2.93
2023-03-31T15:04:28.823Z,2.73
2023-03-31T15:07:06.582Z,2.70
2023-03-31T15:09:35.465Z,2.83
2023-03-31T15:12:08.609Z,3.40
2023-03-31T15:14:44.801Z,3.17
2023-03-31T15:17:23.217Z,2.90
2023-03-31T15:19:58.032Z,2.77
2023-03-31T15:22:27.726Z,2.73
2023-03-31T15:24:54.636Z,2.70
2023-03-31T15:27:36.589Z,2.73
2023-03-31T15:30:08.496Z,3.00
2023-03-31T15:32:37.262Z,2.90
2023-03-31T15:35:18.817Z,2.90
2023-03-31T15:37:51.059Z,3.27
2023-03-31T15:40:36.483Z,3.70
2023-03-31T15:43:25.636Z,3.67
2023-03-31T15:45:56.294Z,2.90
2023-03-31T15:48:25.381Z,3.00
2023-03-31T15:50:53.206Z,2.63
2023-03-31T15:53:27.568Z,2.63
2023-03-31T15:55:56.891Z,2.20
2023-03-31T15:58:27.030Z,2.40
2023-03-31T16:00:54.408Z,2.40
2023-03-31T16:03:29.098Z,2.50
2023-03-31T16:05:57.903Z,3.23
2023-03-31T16:08:38.070Z,2.20
2023-03-31T16:11:14.302Z,2.00
2023-03-31T16:13:43.319Z,1.90
2023-03-31T16:16:15.838Z,2.00
2023-03-31T16:18:45.841Z,2.13
2023-03-31T16:21:14.188Z,2.20
2023-03-31T16:23:41.602Z,2.00
2023-03-31T16:26:08.730Z,2.20
2023-03-31T16:28:37.597Z,2.13
2023-03-31T16:31:06.043Z,2.07
2023-03-31T16:33:53.475Z,2.30
2023-03-31T16:36:20.166Z,2.23
2023-03-31T16:38:47.075Z,2.40
2023-03-31T16:41:15.796Z,2.00
2023-03-31T16:43:45.234Z,2.33
2023-03-31T16:46:11.871Z,2.70
2023-03-31T16:48:38.868Z,2.20
2023-03-31T16:51:05.915Z,2.30
2023-03-31T16:53:34.590Z,2.23
2023-03-31T16:56:01.665Z,2.40
2023-03-31T16:58:29.146Z,2.10
2023-03-31T17:00:56.901Z,2.47
2023-03-31T17:03:23.942Z,1.87
2023-03-31T17:05:53.020Z,2.07
2023-03-31T17:08:21.646Z,1.70
2023-03-31T17:11:03.380Z,1.87
2023-03-31T17:13:32.467Z,1.80
2023-03-31T17:16:13.118Z,2.00
2023-03-31T17:18:45.668Z,1.70
2023-03-31T17:21:14.569Z,2.47
2023-03-31T17:23:41.664Z,2.60
2023-03-31T17:26:18.635Z,3.33
2023-03-31T17:28:45.422Z,2.33
2023-03-31T17:31:13.642Z,3.30
2023-03-31T17:33:40.406Z,3.00
2023-03-31T17:36:07.248Z,3.40
2023-03-31T17:38:34.638Z,4.20
2023-03-31T17:41:05.618Z,5.17
2023-03-31T17:43:33.346Z,5.20
2023-03-31T17:46:09.250Z,5.27
2023-03-31T17:48:38.608Z,5.53
2023-03-31T17:51:10.306Z,6.40
2023-03-31T17:53:36.790Z,6.07
2023-03-31T17:56:04.629Z,7.37
2023-03-31T17:58:31.430Z,6.07
2023-03-31T18:00:58.468Z,6.57
2023-03-31T18:03:27.744Z,6.93
2023-03-31T18:05:54.813Z,6.77
2023-03-31T18:08:21.302Z,6.97
2023-03-31T18:10:47.820Z,5.53
2023-03-31T18:13:14.301Z,5.47
2023-03-31T18:15:46.678Z,5.53
2023-03-31T18:18:13.303Z,5.77
2023-03-31T18:20:40.075Z,7.27
2023-03-31T18:23:06.595Z,7.63
2023-03-31T18:25:33.419Z,8.50
2023-03-31T18:28:00.410Z,7.20
2023-03-31T18:30:27.823Z,6.47
2023-03-31T18:32:54.601Z,6.17
2023-03-31T18:35:23.258Z,11.70
2023-03-31T18:37:49.938Z,10.37
2023-03-31T18:40:17.323Z,5.97
2023-03-31T18:42:44.097Z,6.50
2023-03-31T18:45:10.677Z,6.20
2023-03-31T18:47:37.446Z,8.77
2023-03-31T18:50:04.841Z,8.50
2023-03-31T18:52:31.707Z,8.37
2023-03-31T18:54:58.400Z,7.53
2023-03-31T18:57:25.522Z,8.20
2023-03-31T18:59:52.198Z,8.47
2023-03-31T19:02:19.609Z,10.63
2023-03-31T19:04:47.330Z,9.47
2023-03-31T19:07:14.921Z,9.60
2023-03-31T19:09:41.693Z,10.50
2023-03-31T19:12:08.210Z,9.70
2023-03-31T19:14:37.644Z,9.37
2023-03-31T19:17:05.336Z,10.50
2023-03-31T19:19:32.304Z,10.00
2023-03-31T19:21:59.009Z,9.67
2023-03-31T19:24:25.603Z,11.00
2023-03-31T19:26:52.105Z,10.30
2023-03-31T19:29:18.833Z,8.90
2023-03-31T19:31:47.516Z,7.33
2023-03-31T19:34:16.564Z,8.43
2023-03-31T19:36:43.343Z,8.07
2023-03-31T19:39:11.360Z,8.53
2023-03-31T19:41:37.917Z,8.27
2023-03-31T19:44:04.486Z,8.67
2023-03-31T19:46:31.110Z,9.33
2023-03-31T19:48:57.860Z,10.20
2023-03-31T19:51:24.445Z,10.07
2023-03-31T19:53:51.072Z,8.87
2023-03-31T19:56:18.001Z,11.03
2023-03-31T19:58:44.679Z,11.53
2023-03-31T20:01:17.771Z,11.33
2023-03-31T20:03:44.958Z,10.47
2023-03-31T20:06:13.846Z,10.90
2023-03-31T20:08:44.294Z,10.43
2023-03-31T20:11:13.382Z,11.63
2023-03-31T20:13:42.035Z,10.77
2023-03-31T20:16:10.117Z,9.37
2023-03-31T20:18:37.495Z,10.60
2023-03-31T20:21:12.984Z,10.30
2023-03-31T20:23:41.005Z,9.87
2023-03-31T20:26:09.497Z,9.83
2023-03-31T20:28:37.020Z,10.27
2023-03-31T20:31:14.423Z,11.10
2023-03-31T20:33:42.273Z,10.93
2023-03-31T20:36:11.342Z,10.83
2023-03-31T20:38:39.253Z,11.00
2023-03-31T20:41:06.590Z,10.87
2023-03-31T20:43:33.726Z,10.73
2023-03-31T20:46:06.606Z,11.23
2023-03-31T20:48:38.550Z,12.23
2023-03-31T20:51:07.192Z,10.57
2023-03-31T20:53:42.037Z,10.33
2023-03-31T20:56:10.546Z,11.80
2023-03-31T20:58:37.398Z,11.90
2023-03-31T21:01:05.841Z,10.90
2023-03-31T21:03:32.708Z,12.07
2023-03-31T21:06:04.095Z,12.50
2023-03-31T21:08:31.310Z,11.93
2023-03-31T21:11:01.585Z,12.83
2023-03-31T21:13:31.690Z,12.97
2023-03-31T21:15:59.043Z,12.90
2023-03-31T21:18:26.480Z,12.47
2023-03-31T21:20:54.969Z,12.80
2023-03-31T21:23:22.738Z,12.63
2023-03-31T21:25:50.614Z,12.37
2023-03-31T21:28:20.612Z,12.77
2023-03-31T21:31:00.637Z,13.07
2023-03-31T21:33:28.748Z,12.80
2023-03-31T21:35:56.628Z,12.03
2023-03-31T21:38:24.019Z,12.13
2023-03-31T21:40:52.368Z,12.93
2023-03-31T21:43:19.316Z,11.97
2023-03-31T21:45:47.251Z,12.13
2023-03-31T21:48:14.772Z,12.93
2023-03-31T21:50:41.596Z,12.40
2023-03-31T21:53:09.226Z,12.27
2023-03-31T21:55:37.465Z,12.20
2023-03-31T21:58:05.362Z,13.83
2023-03-31T22:00:32.592Z,12.60
2023-03-31T22:03:16.328Z,12.80
2023-03-31T22:05:45.682Z,12.87
2023-03-31T22:08:12.200Z,12.70
2023-03-31T22:10:38.667Z,13.20
2023-03-31T22:13:05.344Z,14.37
2023-03-31T22:15:32.142Z,13.37
2023-03-31T22:17:58.918Z,14.03
2023-03-31T22:20:25.813Z,13.13
2023-03-31T22:22:52.359Z,13.93
2023-03-31T22:25:18.834Z,12.43
2023-03-31T22:27:45.376Z,13.37
2023-03-31T22:30:12.316Z,12.80
2023-03-31T22:32:38.796Z,13.10
2023-03-31T22:35:05.849Z,12.10
2023-03-31T22:37:32.375Z,12.60
2023-03-31T22:39:58.847Z,12.43
2023-03-31T22:42:25.618Z,11.27
2023-03-31T22:44:52.157Z,11.87
2023-03-31T22:47:18.630Z,12.43
2023-03-31T22:52:12.507Z,12.27
2023-03-31T22:54:40.861Z,11.40
2023-03-31T22:57:08.021Z,12.60
2023-03-31T22:59:34.534Z,11.47
2023-03-31T23:02:01.092Z,12.23
2023-03-31T23:04:27.888Z,12.73
2023-03-31T23:06:55.086Z,12.33
2023-03-31T23:09:23.661Z,13.90
2023-03-31T23:11:50.952Z,13.67
2023-03-31T23:14:17.511Z,13.60
2023-03-31T23:16:44.180Z,12.77
2023-03-31T23:19:12.239Z,13.83
2023-03-31T23:21:38.911Z,14.53
2023-03-31T23:24:05.704Z,14.67
2023-03-31T23:26:33.374Z,15.87
2023-03-31T23:29:00.568Z,14.07
2023-03-31T23:31:29.751Z,14.60
2023-03-31T23:33:57.701Z,14.03
2023-03-31T23:36:24.311Z,14.23
2023-03-31T23:38:52.933Z,14.30
2023-03-31T23:41:20.157Z,14.77
2023-03-31T23:43:46.863Z,14.20
2023-03-31T23:46:13.635Z,14.53
2023-03-31T23:48:42.009Z,14.30
2023-03-31T23:51:09.294Z,14.23
2023-03-31T23:53:36.243Z,16.53
2023-03-31T23:56:05.623Z,15.20
2023-03-31T23:58:32.524Z,16.20
